sensor_id;sensor_type;location;lat;lon;timestamp;temperature;humidity
30534;DHT22;73248;52.398;9.814;2024-03-23T00:53:32;9.30;99.90
30534;DHT22;73248;52.398;9.814;2024-03-23T00:55:59;9.30;99.90
30534;DHT22;73248;52.398;9.814;2024-03-23T00:58:24;9.20;99.90
30534;DHT22;73248;52.398;9.814;2024-03-23T01:00:50;9.30;99.90
30534;DHT22;73248;52.398;9.814;2024-03-23T01:03:16;9.30;99.90
30534;DHT22;73248;52.398;9.814;2024-03-23T01:05:41;9.30;99.90
30534;DHT22;73248;52.398;9.814;2024-03-23T01:08:07;9.30;99.90
30534;DHT22;73248;52.398;9.814;2024-03-23T01:10:32;9.30;99.90
30534;DHT22;73248;52.398;9.814;2024-03-23T01:12:58;9.30;99.90
30534;DHT22;73248;52.398;9.814;2024-03-23T01:15:24;9.20;99.90
30534;DHT22;73248;52.398;9.814;2024-03-23T01:17:49;9.20;99.90
30534;DHT22;73248;52.398;9.814;2024-03-23T01:20:15;9.20;99.90
30534;DHT22;73248;52.398;9.814;2024-03-23T01:22:40;9.10;99.90
30534;DHT22;73248;52.398;9.814;2024-03-23T01:25:06;9.10;99.90
30534;DHT22;73248;52.398;9.814;2024-03-23T01:27:32;9.00;99.90
30534;DHT22;73248;52.398;9.814;2024-03-23T01:29:59;9.00;99.90
30534;DHT22;73248;52.398;9.814;2024-03-23T01:32:25;9.10;99.90
30534;DHT22;73248;52.398;9.814;2024-03-23T01:34:50;9.00;99.90
30534;DHT22;73248;52.398;9.814;2024-03-23T01:37:16;9.00;99.90
30534;DHT22;73248;52.398;9.814;2024-03-23T01:39:42;9.00;99.90
30534;DHT22;73248;52.398;9.814;2024-03-23T01:42:07;8.90;99.90
30534;DHT22;73248;52.398;9.814;2024-03-23T01:44:33;8.90;99.90
30534;DHT22;73248;52.398;9.814;2024-03-23T01:46:59;8.90;99.90
30534;DHT22;73248;52.398;9.814;2024-03-23T01:49:24;8.80;99.90
30534;DHT22;73248;52.398;9.814;2024-03-23T01:51:50;8.80;99.90
30534;DHT22;73248;52.398;9.814;2024-03-23T01:54:16;8.90;99.90
30534;DHT22;73248;52.398;9.814;2024-03-23T01:56:41;8.80;99.90
30534;DHT22;73248;52.398;9.814;2024-03-23T01:59:07;8.80;99.90
30534;DHT22;73248;52.398;9.814;2024-03-23T02:01:34;8.80;99.90
30534;DHT22;73248;52.398;9.814;2024-03-23T02:04:01;8.80;99.90
30534;DHT22;73248;52.398;9.814;2024-03-23T02:06:27;8.80;99.90
30534;DHT22;73248;52.398;9.814;2024-03-23T02:08:54;8.80;99.90
30534;DHT22;73248;52.398;9.814;2024-03-23T02:11:19;8.70;99.90
30534;DHT22;73248;52.398;9.814;2024-03-23T02:13:45;8.70;99.90
30534;DHT22;73248;52.398;9.814;2024-03-23T02:16:11;8.70;99.90
30534;DHT22;73248;52.398;9.814;2024-03-23T02:18:36;8.70;99.90
30534;DHT22;73248;52.398;9.814;2024-03-23T02:21:03;8.70;99.90
30534;DHT22;73248;52.398;9.814;2024-03-23T02:23:28;8.70;99.90
30534;DHT22;73248;52.398;9.814;2024-03-23T02:25:54;8.60;99.90
30534;DHT22;73248;52.398;9.814;2024-03-23T02:28:20;8.60;99.90
30534;DHT22;73248;52.398;9.814;2024-03-23T02:30:50;8.60;99.90
30534;DHT22;73248;52.398;9.814;2024-03-23T02:33:16;8.60;99.90
30534;DHT22;73248;52.398;9.814;2024-03-23T02:35:43;8.60;99.90
30534;DHT22;73248;52.398;9.814;2024-03-23T02:38:08;8.60;99.90
30534;DHT22;73248;52.398;9.814;2024-03-23T02:40:34;8.60;99.90
30534;DHT22;73248;52.398;9.814;2024-03-23T02:43:00;8.60;99.90
30534;DHT22;73248;52.398;9.814;2024-03-23T02:45:26;8.60;99.90
30534;DHT22;73248;52.398;9.814;2024-03-23T02:47:51;8.60;99.90
30534;DHT22;73248;52.398;9.814;2024-03-23T02:50:20;8.60;99.90
30534;DHT22;73248;52.398;9.814;2024-03-23T02:52:46;8.50;99.90
30534;DHT22;73248;52.398;9.814;2024-03-23T02:55:11;8.60;99.90
30534;DHT22;73248;52.398;9.814;2024-03-23T02:57:37;8.50;99.90
30534;DHT22;73248;52.398;9.814;2024-03-23T03:00:03;8.50;99.90
30534;DHT22;73248;52.398;9.814;2024-03-23T03:02:30;8.60;99.90
30534;DHT22;73248;52.398;9.814;2024-03-23T03:04:55;8.50;99.90
30534;DHT22;73248;52.398;9.814;2024-03-23T03:07:21;8.50;99.90
30534;DHT22;73248;52.398;9.814;2024-03-23T03:09:47;8.50;99.90
30534;DHT22;73248;52.398;9.814;2024-03-23T03:12:12;8.50;99.90
30534;DHT22;73248;52.398;9.814;2024-03-23T03:14:38;8.50;99.90
30534;DHT22;73248;52.398;9.814;2024-03-23T03:17:03;8.50;99.90
30534;DHT22;73248;52.398;9.814;2024-03-23T03:19:29;8.40;99.90
30534;DHT22;73248;52.398;9.814;2024-03-23T03:21:55;8.40;99.90
30534;DHT22;73248;52.398;9.814;2024-03-23T03:24:21;8.40;99.90
30534;DHT22;73248;52.398;9.814;2024-03-23T03:26:47;8.40;99.90
30534;DHT22;73248;52.398;9.814;2024-03-23T03:29:12;8.40;99.90
30534;DHT22;73248;52.398;9.814;2024-03-23T03:31:39;8.40;99.90
30534;DHT22;73248;52.398;9.814;2024-03-23T03:34:05;8.40;99.90
30534;DHT22;73248;52.398;9.814;2024-03-23T03:36:30;8.40;99.90
30534;DHT22;73248;52.398;9.814;2024-03-23T03:38:56;8.40;99.90
30534;DHT22;73248;52.398;9.814;2024-03-23T03:41:21;8.40;99.90
30534;DHT22;73248;52.398;9.814;2024-03-23T03:43:47;8.40;99.90
30534;DHT22;73248;52.398;9.814;2024-03-23T03:46:12;8.40;99.90
30534;DHT22;73248;52.398;9.814;2024-03-23T03:48:38;8.40;99.90
30534;DHT22;73248;52.398;9.814;2024-03-23T03:51:04;8.40;99.90
30534;DHT22;73248;52.398;9.814;2024-03-23T03:53:30;8.40;99.90
30534;DHT22;73248;52.398;9.814;2024-03-23T03:55:56;8.40;99.90
30534;DHT22;73248;52.398;9.814;2024-03-23T03:58:22;8.40;99.90
30534;DHT22;73248;52.398;9.814;2024-03-23T04:00:47;8.40;99.90
30534;DHT22;73248;52.398;9.814;2024-03-23T04:03:13;8.30;99.90
30534;DHT22;73248;52.398;9.814;2024-03-23T04:05:39;8.40;99.90
30534;DHT22;73248;52.398;9.814;2024-03-23T04:08:05;8.40;99.90
30534;DHT22;73248;52.398;9.814;2024-03-23T04:10:31;8.40;99.90
30534;DHT22;73248;52.398;9.814;2024-03-23T04:12:56;8.40;99.90
30534;DHT22;73248;52.398;9.814;2024-03-23T04:15:22;8.30;99.90
30534;DHT22;73248;52.398;9.814;2024-03-23T04:17:48;8.40;99.90
30534;DHT22;73248;52.398;9.814;2024-03-23T04:20:13;8.40;99.90
30534;DHT22;73248;52.398;9.814;2024-03-23T04:22:42;8.30;99.90
30534;DHT22;73248;52.398;9.814;2024-03-23T04:25:08;8.30;99.90
30534;DHT22;73248;52.398;9.814;2024-03-23T04:27:33;8.20;99.90
30534;DHT22;73248;52.398;9.814;2024-03-23T04:29:59;8.10;99.90
30534;DHT22;73248;52.398;9.814;2024-03-23T04:32:27;8.10;99.90
30534;DHT22;73248;52.398;9.814;2024-03-23T04:34:53;8.10;99.90
30534;DHT22;73248;52.398;9.814;2024-03-23T04:37:20;8.00;99.90
30534;DHT22;73248;52.398;9.814;2024-03-23T04:39:46;8.00;99.90
30534;DHT22;73248;52.398;9.814;2024-03-23T04:42:11;8.00;99.90
30534;DHT22;73248;52.398;9.814;2024-03-23T04:44:37;8.00;99.90
30534;DHT22;73248;52.398;9.814;2024-03-23T04:47:03;8.00;99.90
30534;DHT22;73248;52.398;9.814;2024-03-23T04:49:29;8.00;99.90
30534;DHT22;73248;52.398;9.814;2024-03-23T04:51:54;8.00;99.90
30534;DHT22;73248;52.398;9.814;2024-03-23T04:54:20;8.00;99.90
30534;DHT22;73248;52.398;9.814;2024-03-23T04:56:46;8.00;99.90
30534;DHT22;73248;52.398;9.814;2024-03-23T04:59:11;8.00;99.90
30534;DHT22;73248;52.398;9.814;2024-03-23T05:01:37;8.00;99.90
30534;DHT22;73248;52.398;9.814;2024-03-23T05:04:05;8.00;99.90
30534;DHT22;73248;52.398;9.814;2024-03-23T05:06:31;8.00;99.90
30534;DHT22;73248;52.398;9.814;2024-03-23T05:08:58;8.00;99.90
30534;DHT22;73248;52.398;9.814;2024-03-23T05:11:23;8.00;99.90
30534;DHT22;73248;52.398;9.814;2024-03-23T05:13:49;7.90;99.90
30534;DHT22;73248;52.398;9.814;2024-03-23T05:16:15;7.90;99.90
30534;DHT22;73248;52.398;9.814;2024-03-23T05:18:40;7.90;99.90
30534;DHT22;73248;52.398;9.814;2024-03-23T05:21:06;7.90;99.90
30534;DHT22;73248;52.398;9.814;2024-03-23T05:23:31;7.90;99.90
30534;DHT22;73248;52.398;9.814;2024-03-23T05:25:57;7.80;99.90
30534;DHT22;73248;52.398;9.814;2024-03-23T05:28:22;7.70;99.90
30534;DHT22;73248;52.398;9.814;2024-03-23T05:30:52;7.70;99.90
30534;DHT22;73248;52.398;9.814;2024-03-23T05:33:19;7.70;99.90
30534;DHT22;73248;52.398;9.814;2024-03-23T05:35:45;7.70;99.90
30534;DHT22;73248;52.398;9.814;2024-03-23T05:38:11;7.70;99.90
30534;DHT22;73248;52.398;9.814;2024-03-23T05:40:37;7.70;99.90
30534;DHT22;73248;52.398;9.814;2024-03-23T05:43:06;7.70;99.90
30534;DHT22;73248;52.398;9.814;2024-03-23T05:45:31;7.60;99.90
30534;DHT22;73248;52.398;9.814;2024-03-23T05:47:57;7.60;99.90
30534;DHT22;73248;52.398;9.814;2024-03-23T05:50:23;7.60;99.90
30534;DHT22;73248;52.398;9.814;2024-03-23T05:52:49;7.50;99.90
30534;DHT22;73248;52.398;9.814;2024-03-23T05:55:15;7.50;99.90
30534;DHT22;73248;52.398;9.814;2024-03-23T05:57:41;7.50;99.90
30534;DHT22;73248;52.398;9.814;2024-03-23T06:00:07;7.50;99.90
30534;DHT22;73248;52.398;9.814;2024-03-23T06:02:42;7.50;99.90
30534;DHT22;73248;52.398;9.814;2024-03-23T06:05:13;7.50;99.90
30534;DHT22;73248;52.398;9.814;2024-03-23T06:07:39;7.50;99.90
30534;DHT22;73248;52.398;9.814;2024-03-23T06:10:05;7.50;99.90
30534;DHT22;73248;52.398;9.814;2024-03-23T06:12:31;7.50;99.90
30534;DHT22;73248;52.398;9.814;2024-03-23T06:14:57;7.50;99.90
30534;DHT22;73248;52.398;9.814;2024-03-23T06:17:23;7.50;99.90
30534;DHT22;73248;52.398;9.814;2024-03-23T06:19:48;7.50;99.90
30534;DHT22;73248;52.398;9.814;2024-03-23T06:22:14;7.50;99.90
30534;DHT22;73248;52.398;9.814;2024-03-23T06:24:40;7.50;99.90
30534;DHT22;73248;52.398;9.814;2024-03-23T06:27:06;7.50;99.90
30534;DHT22;73248;52.398;9.814;2024-03-23T06:29:31;7.60;99.90
30534;DHT22;73248;52.398;9.814;2024-03-23T06:31:57;7.50;99.90
30534;DHT22;73248;52.398;9.814;2024-03-23T06:34:23;7.60;99.90
30534;DHT22;73248;52.398;9.814;2024-03-23T06:36:49;7.60;99.90
30534;DHT22;73248;52.398;9.814;2024-03-23T06:39:17;7.70;99.90
30534;DHT22;73248;52.398;9.814;2024-03-23T06:41:52;7.70;99.90
30534;DHT22;73248;52.398;9.814;2024-03-23T06:44:18;7.70;99.90
30534;DHT22;73248;52.398;9.814;2024-03-23T06:46:43;7.60;99.90
30534;DHT22;73248;52.398;9.814;2024-03-23T06:49:10;7.70;99.90
30534;DHT22;73248;52.398;9.814;2024-03-23T06:51:35;7.60;99.90
30534;DHT22;73248;52.398;9.814;2024-03-23T06:54:02;7.70;99.90
30534;DHT22;73248;52.398;9.814;2024-03-23T06:56:29;7.60;99.90
30534;DHT22;73248;52.398;9.814;2024-03-23T06:58:54;7.70;99.90
30534;DHT22;73248;52.398;9.814;2024-03-23T07:01:20;7.70;99.90
30534;DHT22;73248;52.398;9.814;2024-03-23T07:03:45;7.70;99.90
30534;DHT22;73248;52.398;9.814;2024-03-23T07:06:11;7.80;99.90
30534;DHT22;73248;52.398;9.814;2024-03-23T07:08:36;7.80;99.90
30534;DHT22;73248;52.398;9.814;2024-03-23T07:11:02;7.80;99.90
30534;DHT22;73248;52.398;9.814;2024-03-23T07:13:28;7.80;99.90
30534;DHT22;73248;52.398;9.814;2024-03-23T07:15:53;7.90;99.90
30534;DHT22;73248;52.398;9.814;2024-03-23T07:18:23;7.90;99.90
30534;DHT22;73248;52.398;9.814;2024-03-23T07:20:58;7.90;99.90
30534;DHT22;73248;52.398;9.814;2024-03-23T07:23:24;8.00;99.90
30534;DHT22;73248;52.398;9.814;2024-03-23T07:25:57;8.00;99.90
30534;DHT22;73248;52.398;9.814;2024-03-23T07:28:22;8.00;99.90
30534;DHT22;73248;52.398;9.814;2024-03-23T07:30:48;8.00;99.90
30534;DHT22;73248;52.398;9.814;2024-03-23T07:33:13;8.10;99.90
30534;DHT22;73248;52.398;9.814;2024-03-23T07:35:39;8.10;99.90
30534;DHT22;73248;52.398;9.814;2024-03-23T07:38:04;8.10;99.90
30534;DHT22;73248;52.398;9.814;2024-03-23T07:40:31;8.20;99.90
30534;DHT22;73248;52.398;9.814;2024-03-23T07:42:56;8.20;99.90
30534;DHT22;73248;52.398;9.814;2024-03-23T07:45:22;8.30;99.90
30534;DHT22;73248;52.398;9.814;2024-03-23T07:47:47;8.30;99.90
30534;DHT22;73248;52.398;9.814;2024-03-23T07:50:13;8.30;99.90
30534;DHT22;73248;52.398;9.814;2024-03-23T07:52:39;8.30;99.90
30534;DHT22;73248;52.398;9.814;2024-03-23T07:55:05;8.30;99.90
30534;DHT22;73248;52.398;9.814;2024-03-23T07:57:31;8.30;99.90
30534;DHT22;73248;52.398;9.814;2024-03-23T07:59:56;8.30;99.90
30534;DHT22;73248;52.398;9.814;2024-03-23T08:02:22;8.40;99.90
30534;DHT22;73248;52.398;9.814;2024-03-23T08:04:47;8.40;99.90
30534;DHT22;73248;52.398;9.814;2024-03-23T08:07:13;8.30;99.90
30534;DHT22;73248;52.398;9.814;2024-03-23T08:09:39;8.40;99.90
30534;DHT22;73248;52.398;9.814;2024-03-23T08:12:04;8.40;99.90
30534;DHT22;73248;52.398;9.814;2024-03-23T08:14:30;8.40;99.90
30534;DHT22;73248;52.398;9.814;2024-03-23T08:16:56;8.40;99.90
30534;DHT22;73248;52.398;9.814;2024-03-23T08:19:21;8.40;99.90
30534;DHT22;73248;52.398;9.814;2024-03-23T08:21:47;8.40;99.90
30534;DHT22;73248;52.398;9.814;2024-03-23T08:24:12;8.40;99.90
30534;DHT22;73248;52.398;9.814;2024-03-23T08:26:38;8.40;99.90
30534;DHT22;73248;52.398;9.814;2024-03-23T08:29:05;8.40;99.90
30534;DHT22;73248;52.398;9.814;2024-03-23T08:31:30;8.40;99.90
30534;DHT22;73248;52.398;9.814;2024-03-23T08:33:56;8.40;99.90
30534;DHT22;73248;52.398;9.814;2024-03-23T08:36:21;8.50;99.90
30534;DHT22;73248;52.398;9.814;2024-03-23T08:38:47;8.50;99.90
30534;DHT22;73248;52.398;9.814;2024-03-23T08:41:15;8.60;99.90
30534;DHT22;73248;52.398;9.814;2024-03-23T08:43:41;8.70;99.90
30534;DHT22;73248;52.398;9.814;2024-03-23T08:46:12;8.70;99.90
30534;DHT22;73248;52.398;9.814;2024-03-23T08:48:42;8.70;99.90
30534;DHT22;73248;52.398;9.814;2024-03-23T08:51:10;8.80;99.90
30534;DHT22;73248;52.398;9.814;2024-03-23T08:53:36;8.90;99.90
30534;DHT22;73248;52.398;9.814;2024-03-23T08:56:03;9.00;99.90
30534;DHT22;73248;52.398;9.814;2024-03-23T08:58:30;9.10;99.90
30534;DHT22;73248;52.398;9.814;2024-03-23T09:01:02;9.10;99.90
30534;DHT22;73248;52.398;9.814;2024-03-23T09:03:28;9.10;99.90
30534;DHT22;73248;52.398;9.814;2024-03-23T09:05:54;9.20;99.90
30534;DHT22;73248;52.398;9.814;2024-03-23T09:08:20;9.20;99.90
30534;DHT22;73248;52.398;9.814;2024-03-23T09:10:47;9.10;99.90
30534;DHT22;73248;52.398;9.814;2024-03-23T09:13:13;9.20;99.90
30534;DHT22;73248;52.398;9.814;2024-03-23T09:15:47;9.30;99.90
30534;DHT22;73248;52.398;9.814;2024-03-23T09:18:12;9.40;99.90
30534;DHT22;73248;52.398;9.814;2024-03-23T09:20:38;9.30;99.90
30534;DHT22;73248;52.398;9.814;2024-03-23T09:23:04;9.30;99.90
30534;DHT22;73248;52.398;9.814;2024-03-23T09:25:29;9.30;99.90
30534;DHT22;73248;52.398;9.814;2024-03-23T09:27:55;9.30;99.90
30534;DHT22;73248;52.398;9.814;2024-03-23T09:30:21;9.30;99.90
30534;DHT22;73248;52.398;9.814;2024-03-23T09:32:46;9.40;99.90
30534;DHT22;73248;52.398;9.814;2024-03-23T09:35:12;9.40;99.90
30534;DHT22;73248;52.398;9.814;2024-03-23T09:37:40;9.50;99.90
30534;DHT22;73248;52.398;9.814;2024-03-23T09:40:15;9.70;99.90
30534;DHT22;73248;52.398;9.814;2024-03-23T09:42:41;9.70;99.90
30534;DHT22;73248;52.398;9.814;2024-03-23T09:45:28;9.70;99.90
30534;DHT22;73248;52.398;9.814;2024-03-23T09:47:55;9.60;99.90
30534;DHT22;73248;52.398;9.814;2024-03-23T09:50:21;9.60;99.90
30534;DHT22;73248;52.398;9.814;2024-03-23T09:52:47;9.50;99.90
30534;DHT22;73248;52.398;9.814;2024-03-23T09:55:12;9.40;99.90
30534;DHT22;73248;52.398;9.814;2024-03-23T09:57:39;9.30;99.90
30534;DHT22;73248;52.398;9.814;2024-03-23T10:00:05;9.30;99.90
30534;DHT22;73248;52.398;9.814;2024-03-23T10:02:32;9.50;99.90
30534;DHT22;73248;52.398;9.814;2024-03-23T10:04:58;9.70;99.90
30534;DHT22;73248;52.398;9.814;2024-03-23T10:07:23;9.90;99.90
30534;DHT22;73248;52.398;9.814;2024-03-23T10:09:49;10.00;99.90
30534;DHT22;73248;52.398;9.814;2024-03-23T10:12:18;10.10;99.90
30534;DHT22;73248;52.398;9.814;2024-03-23T10:14:45;10.10;99.90
30534;DHT22;73248;52.398;9.814;2024-03-23T10:17:21;10.10;99.90
30534;DHT22;73248;52.398;9.814;2024-03-23T10:19:52;10.00;99.90
30534;DHT22;73248;52.398;9.814;2024-03-23T10:22:19;10.00;99.90
30534;DHT22;73248;52.398;9.814;2024-03-23T10:24:45;10.10;99.90
30534;DHT22;73248;52.398;9.814;2024-03-23T10:27:18;10.40;99.90
30534;DHT22;73248;52.398;9.814;2024-03-23T10:29:48;10.90;99.90
30534;DHT22;73248;52.398;9.814;2024-03-23T10:32:16;11.40;99.90
30534;DHT22;73248;52.398;9.814;2024-03-23T10:34:43;11.90;97.20
30534;DHT22;73248;52.398;9.814;2024-03-23T10:37:09;12.30;98.10
30534;DHT22;73248;52.398;9.814;2024-03-23T10:39:37;12.80;97.10
30534;DHT22;73248;52.398;9.814;2024-03-23T10:42:08;13.20;96.80
30534;DHT22;73248;52.398;9.814;2024-03-23T10:44:35;13.30;94.20
30534;DHT22;73248;52.398;9.814;2024-03-23T10:47:02;13.00;94.40
30534;DHT22;73248;52.398;9.814;2024-03-23T10:49:36;12.80;94.30
30534;DHT22;73248;52.398;9.814;2024-03-23T10:52:02;12.70;93.70
30534;DHT22;73248;52.398;9.814;2024-03-23T10:54:30;12.30;94.30
30534;DHT22;73248;52.398;9.814;2024-03-23T10:57:19;11.20;95.80
30534;DHT22;73248;52.398;9.814;2024-03-23T10:59:46;10.20;96.90
30534;DHT22;73248;52.398;9.814;2024-03-23T11:02:19;9.80;99.40
30534;DHT22;73248;52.398;9.814;2024-03-23T11:04:45;9.70;99.90
30534;DHT22;73248;52.398;9.814;2024-03-23T11:07:32;9.50;99.90
30534;DHT22;73248;52.398;9.814;2024-03-23T11:09:59;9.00;99.90
30534;DHT22;73248;52.398;9.814;2024-03-23T11:12:25;8.70;99.90
30534;DHT22;73248;52.398;9.814;2024-03-23T11:15:04;8.60;99.90
30534;DHT22;73248;52.398;9.814;2024-03-23T11:17:30;8.60;99.90
30534;DHT22;73248;52.398;9.814;2024-03-23T11:20:03;9.00;99.90
30534;DHT22;73248;52.398;9.814;2024-03-23T11:22:41;9.50;99.90
30534;DHT22;73248;52.398;9.814;2024-03-23T11:25:24;10.30;99.90
30534;DHT22;73248;52.398;9.814;2024-03-23T11:27:51;10.30;99.90
30534;DHT22;73248;52.398;9.814;2024-03-23T11:30:21;10.00;99.90
30534;DHT22;73248;52.398;9.814;2024-03-23T11:32:55;9.80;99.90
30534;DHT22;73248;52.398;9.814;2024-03-23T11:38:12;9.40;99.90
30534;DHT22;73248;52.398;9.814;2024-03-23T11:43:05;9.50;99.90
30534;DHT22;73248;52.398;9.814;2024-03-23T11:45:36;10.20;99.90
30534;DHT22;73248;52.398;9.814;2024-03-23T11:48:09;10.60;99.90
30534;DHT22;73248;52.398;9.814;2024-03-23T11:50:37;11.00;99.90
30534;DHT22;73248;52.398;9.814;2024-03-23T11:55:46;11.00;99.90
30534;DHT22;73248;52.398;9.814;2024-03-23T11:58:12;10.80;99.90
30534;DHT22;73248;52.398;9.814;2024-03-23T12:00:38;10.40;99.90
30534;DHT22;73248;52.398;9.814;2024-03-23T12:03:04;9.90;99.90
30534;DHT22;73248;52.398;9.814;2024-03-23T12:05:32;9.80;99.90
30534;DHT22;73248;52.398;9.814;2024-03-23T12:10:48;9.90;99.90
30534;DHT22;73248;52.398;9.814;2024-03-23T12:13:20;9.80;99.90
30534;DHT22;73248;52.398;9.814;2024-03-23T12:15:49;9.60;99.90
30534;DHT22;73248;52.398;9.814;2024-03-23T12:18:15;10.00;99.90
30534;DHT22;73248;52.398;9.814;2024-03-23T12:20:40;10.60;99.90
30534;DHT22;73248;52.398;9.814;2024-03-23T12:23:12;10.90;99.90
30534;DHT22;73248;52.398;9.814;2024-03-23T12:25:39;11.10;99.90
30534;DHT22;73248;52.398;9.814;2024-03-23T12:28:05;11.10;99.90
30534;DHT22;73248;52.398;9.814;2024-03-23T12:30:35;11.00;99.90
30534;DHT22;73248;52.398;9.814;2024-03-23T12:33:02;11.20;99.90
30534;DHT22;73248;52.398;9.814;2024-03-23T12:35:28;11.90;99.90
30534;DHT22;73248;52.398;9.814;2024-03-23T12:37:54;12.50;99.90
30534;DHT22;73248;52.398;9.814;2024-03-23T12:40:19;12.70;99.10
30534;DHT22;73248;52.398;9.814;2024-03-23T12:42:45;12.60;99.10
30534;DHT22;73248;52.398;9.814;2024-03-23T12:45:11;12.50;98.80
30534;DHT22;73248;52.398;9.814;2024-03-23T12:47:36;12.20;98.60
30534;DHT22;73248;52.398;9.814;2024-03-23T12:50:02;11.80;98.80
30534;DHT22;73248;52.398;9.814;2024-03-23T12:52:28;11.60;99.70
30534;DHT22;73248;52.398;9.814;2024-03-23T12:54:57;11.00;99.60
30534;DHT22;73248;52.398;9.814;2024-03-23T12:57:26;10.50;99.20
30534;DHT22;73248;52.398;9.814;2024-03-23T12:59:53;10.30;98.40
30534;DHT22;73248;52.398;9.814;2024-03-23T13:02:22;10.10;98.60
30534;DHT22;73248;52.398;9.814;2024-03-23T13:04:54;10.00;97.90
30534;DHT22;73248;52.398;9.814;2024-03-23T13:07:21;9.90;98.40
30534;DHT22;73248;52.398;9.814;2024-03-23T13:09:49;9.70;98.20
30534;DHT22;73248;52.398;9.814;2024-03-23T13:12:15;9.60;98.40
30534;DHT22;73248;52.398;9.814;2024-03-23T13:14:40;9.60;98.40
30534;DHT22;73248;52.398;9.814;2024-03-23T13:17:06;9.50;98.20
30534;DHT22;73248;52.398;9.814;2024-03-23T13:19:33;9.40;98.30
30534;DHT22;73248;52.398;9.814;2024-03-23T13:21:59;9.50;99.10
30534;DHT22;73248;52.398;9.814;2024-03-23T13:24:26;9.80;99.50
30534;DHT22;73248;52.398;9.814;2024-03-23T13:26:52;10.50;99.10
30534;DHT22;73248;52.398;9.814;2024-03-23T13:29:19;11.40;99.10
30534;DHT22;73248;52.398;9.814;2024-03-23T13:31:48;12.20;99.90
30534;DHT22;73248;52.398;9.814;2024-03-23T13:34:14;12.90;97.60
30534;DHT22;73248;52.398;9.814;2024-03-23T13:36:41;13.60;97.60
30534;DHT22;73248;52.398;9.814;2024-03-23T13:39:07;14.30;94.50
30534;DHT22;73248;52.398;9.814;2024-03-23T13:41:45;14.70;95.10
30534;DHT22;73248;52.398;9.814;2024-03-23T13:44:12;15.30;93.80
30534;DHT22;73248;52.398;9.814;2024-03-23T13:46:40;15.70;92.80
30534;DHT22;73248;52.398;9.814;2024-03-23T13:49:06;15.40;92.80
30534;DHT22;73248;52.398;9.814;2024-03-23T13:51:32;15.40;93.00
30534;DHT22;73248;52.398;9.814;2024-03-23T13:53:58;15.70;92.20
30534;DHT22;73248;52.398;9.814;2024-03-23T13:56:27;15.60;91.90
30534;DHT22;73248;52.398;9.814;2024-03-23T13:58:57;16.10;91.50
30534;DHT22;73248;52.398;9.814;2024-03-23T14:01:23;16.40;91.50
30534;DHT22;73248;52.398;9.814;2024-03-23T14:03:50;16.60;91.50
30534;DHT22;73248;52.398;9.814;2024-03-23T14:06:15;16.40;91.40
30534;DHT22;73248;52.398;9.814;2024-03-23T14:08:41;16.40;90.50
30534;DHT22;73248;52.398;9.814;2024-03-23T14:11:09;15.80;90.00
30534;DHT22;73248;52.398;9.814;2024-03-23T14:13:35;15.10;89.30
30534;DHT22;73248;52.398;9.814;2024-03-23T14:16:01;14.50;90.70
30534;DHT22;73248;52.398;9.814;2024-03-23T14:18:27;13.90;89.70
30534;DHT22;73248;52.398;9.814;2024-03-23T14:20:56;13.50;90.50
30534;DHT22;73248;52.398;9.814;2024-03-23T14:23:27;12.90;90.40
30534;DHT22;73248;52.398;9.814;2024-03-23T14:25:56;12.60;91.10
30534;DHT22;73248;52.398;9.814;2024-03-23T14:28:22;12.00;91.60
30534;DHT22;73248;52.398;9.814;2024-03-23T14:30:49;11.80;92.00
30534;DHT22;73248;52.398;9.814;2024-03-23T14:33:15;11.50;92.40
30534;DHT22;73248;52.398;9.814;2024-03-23T14:35:41;11.40;93.30
30534;DHT22;73248;52.398;9.814;2024-03-23T14:38:06;11.30;93.30
30534;DHT22;73248;52.398;9.814;2024-03-23T14:40:33;11.10;93.10
30534;DHT22;73248;52.398;9.814;2024-03-23T14:42:58;11.00;93.10
30534;DHT22;73248;52.398;9.814;2024-03-23T14:45:24;11.10;93.40
30534;DHT22;73248;52.398;9.814;2024-03-23T14:47:52;10.80;93.70
30534;DHT22;73248;52.398;9.814;2024-03-23T14:50:18;10.30;93.30
30534;DHT22;73248;52.398;9.814;2024-03-23T14:52:45;10.00;93.00
30534;DHT22;73248;52.398;9.814;2024-03-23T14:55:14;9.80;93.90
30534;DHT22;73248;52.398;9.814;2024-03-23T14:57:40;9.60;93.80
30534;DHT22;73248;52.398;9.814;2024-03-23T15:00:09;9.40;94.00
30534;DHT22;73248;52.398;9.814;2024-03-23T15:02:38;9.40;94.10
30534;DHT22;73248;52.398;9.814;2024-03-23T15:05:05;9.30;94.10
30534;DHT22;73248;52.398;9.814;2024-03-23T15:07:33;9.20;94.00
30534;DHT22;73248;52.398;9.814;2024-03-23T15:09:58;9.20;94.40
30534;DHT22;73248;52.398;9.814;2024-03-23T15:12:24;9.40;94.50
30534;DHT22;73248;52.398;9.814;2024-03-23T15:14:50;9.60;94.50
30534;DHT22;73248;52.398;9.814;2024-03-23T15:17:15;9.90;94.50
30534;DHT22;73248;52.398;9.814;2024-03-23T15:19:41;10.30;93.60
30534;DHT22;73248;52.398;9.814;2024-03-23T15:22:08;10.50;93.60
30534;DHT22;73248;52.398;9.814;2024-03-23T15:24:34;10.60;93.10
30534;DHT22;73248;52.398;9.814;2024-03-23T15:27:01;10.90;93.50
30534;DHT22;73248;52.398;9.814;2024-03-23T15:29:26;11.00;92.80
30534;DHT22;73248;52.398;9.814;2024-03-23T15:31:52;10.80;92.70
30534;DHT22;73248;52.398;9.814;2024-03-23T15:34:19;10.80;93.00
30534;DHT22;73248;52.398;9.814;2024-03-23T15:36:50;10.80;93.20
30534;DHT22;73248;52.398;9.814;2024-03-23T15:39:19;10.50;93.50
30534;DHT22;73248;52.398;9.814;2024-03-23T15:41:45;10.20;93.90
30534;DHT22;73248;52.398;9.814;2024-03-23T15:44:11;10.00;94.30
30534;DHT22;73248;52.398;9.814;2024-03-23T15:46:37;9.90;95.00
30534;DHT22;73248;52.398;9.814;2024-03-23T15:49:02;9.80;94.90
30534;DHT22;73248;52.398;9.814;2024-03-23T15:51:28;9.70;95.10
30534;DHT22;73248;52.398;9.814;2024-03-23T15:53:58;9.60;95.30
30534;DHT22;73248;52.398;9.814;2024-03-23T15:56:24;9.40;95.80
30534;DHT22;73248;52.398;9.814;2024-03-23T15:58:49;9.30;96.30
30534;DHT22;73248;52.398;9.814;2024-03-23T16:01:15;9.10;96.90
30534;DHT22;73248;52.398;9.814;2024-03-23T16:03:40;8.70;99.10
30534;DHT22;73248;52.398;9.814;2024-03-23T16:06:07;8.30;99.90
30534;DHT22;73248;52.398;9.814;2024-03-23T16:08:33;8.00;99.90
30534;DHT22;73248;52.398;9.814;2024-03-23T16:11:06;8.20;99.90
30534;DHT22;73248;52.398;9.814;2024-03-23T16:13:33;8.20;99.90
30534;DHT22;73248;52.398;9.814;2024-03-23T16:16:03;8.30;99.90
30534;DHT22;73248;52.398;9.814;2024-03-23T16:18:30;8.50;99.90
30534;DHT22;73248;52.398;9.814;2024-03-23T16:20:57;8.60;99.90
30534;DHT22;73248;52.398;9.814;2024-03-23T16:23:23;8.60;99.90
30534;DHT22;73248;52.398;9.814;2024-03-23T16:25:50;8.70;99.90
30534;DHT22;73248;52.398;9.814;2024-03-23T16:28:25;8.80;99.90
30534;DHT22;73248;52.398;9.814;2024-03-23T16:31:04;8.80;99.90
30534;DHT22;73248;52.398;9.814;2024-03-23T16:33:31;8.70;99.90
30534;DHT22;73248;52.398;9.814;2024-03-23T16:36:08;8.50;99.90
30534;DHT22;73248;52.398;9.814;2024-03-23T16:38:35;8.20;99.90
30534;DHT22;73248;52.398;9.814;2024-03-23T16:43:28;8.10;99.90
30534;DHT22;73248;52.398;9.814;2024-03-23T16:48:25;7.70;99.90